sensor_id;sensor_type;location;lat;lon;timestamp;pressure;altitude;pressure_sealevel;temperature;humidity
13422;BME280;6782;55.904;13.396;2023-06-22T00:02:15;101478.13;;;16.57;100.00
13422;BME280;6782;55.904;13.396;2023-06-22T00:05:02;101469.00;;;16.40;100.00
13422;BME280;6782;55.904;13.396;2023-06-22T00:07:50;101477.03;;;16.38;100.00
13422;BME280;6782;55.904;13.396;2023-06-22T00:10:37;101500.22;;;16.35;100.00
13422;BME280;6782;55.904;13.396;2023-06-22T00:13:26;101515.31;;;16.34;100.00
13422;BME280;6782;55.904;13.396;2023-06-22T00:16:14;101535.47;;;16.41;100.00
13422;BME280;6782;55.904;13.396;2023-06-22T00:19:01;101548.78;;;16.41;100.00
13422;BME280;6782;55.904;13.396;2023-06-22T00:21:49;101553.41;;;16.36;100.00
13422;BME280;6782;55.904;13.396;2023-06-22T00:24:38;101558.63;;;16.39;100.00
13422;BME280;6782;55.904;13.396;2023-06-22T00:27:26;101576.28;;;16.43;100.00
13422;BME280;6782;55.904;13.396;2023-06-22T00:30:15;101575.22;;;16.21;100.00
13422;BME280;6782;55.904;13.396;2023-06-22T00:33:02;101576.44;;;16.12;100.00
13422;BME280;6782;55.904;13.396;2023-06-22T00:35:49;101565.97;;;16.06;100.00
13422;BME280;6782;55.904;13.396;2023-06-22T00:38:38;101570.72;;;15.97;100.00
13422;BME280;6782;55.904;13.396;2023-06-22T00:41:26;101571.09;;;15.85;100.00
13422;BME280;6782;55.904;13.396;2023-06-22T00:44:14;101580.94;;;15.83;100.00
13422;BME280;6782;55.904;13.396;2023-06-22T00:47:03;101588.91;;;15.83;100.00
13422;BME280;6782;55.904;13.396;2023-06-22T00:49:50;101597.91;;;15.79;100.00
13422;BME280;6782;55.904;13.396;2023-06-22T00:52:38;101603.41;;;15.73;100.00
13422;BME280;6782;55.904;13.396;2023-06-22T00:55:30;101613.09;;;15.75;100.00
13422;BME280;6782;55.904;13.396;2023-06-22T00:58:17;101624.69;;;15.73;100.00
13422;BME280;6782;55.904;13.396;2023-06-22T01:01:07;101633.31;;;15.81;100.00
13422;BME280;6782;55.904;13.396;2023-06-22T01:03:56;101647.44;;;15.83;100.00
13422;BME280;6782;55.904;13.396;2023-06-22T01:06:48;101669.91;;;16.02;100.00
13422;BME280;6782;55.904;13.396;2023-06-22T01:09:43;101669.44;;;15.88;100.00
13422;BME280;6782;55.904;13.396;2023-06-22T01:12:38;101679.25;;;15.86;100.00
13422;BME280;6782;55.904;13.396;2023-06-22T01:15:31;101691.66;;;15.87;100.00
13422;BME280;6782;55.904;13.396;2023-06-22T01:18:21;101695.59;;;15.74;100.00
13422;BME280;6782;55.904;13.396;2023-06-22T01:21:16;101709.63;;;15.79;100.00
13422;BME280;6782;55.904;13.396;2023-06-22T01:24:14;101718.50;;;15.79;100.00
13422;BME280;6782;55.904;13.396;2023-06-22T01:27:12;101743.16;;;15.84;100.00
13422;BME280;6782;55.904;13.396;2023-06-22T01:30:04;101757.06;;;15.94;100.00
13422;BME280;6782;55.904;13.396;2023-06-22T01:32:54;101778.06;;;16.03;100.00
13422;BME280;6782;55.904;13.396;2023-06-22T01:35:42;101793.00;;;16.08;100.00
13422;BME280;6782;55.904;13.396;2023-06-22T01:38:30;101815.00;;;16.15;100.00
13422;BME280;6782;55.904;13.396;2023-06-22T01:41:18;101846.59;;;16.25;100.00
13422;BME280;6782;55.904;13.396;2023-06-22T01:44:06;101866.19;;;16.23;100.00
13422;BME280;6782;55.904;13.396;2023-06-22T01:46:56;101885.47;;;16.31;100.00
13422;BME280;6782;55.904;13.396;2023-06-22T01:49:43;101902.84;;;16.44;100.00
13422;BME280;6782;55.904;13.396;2023-06-22T01:52:31;101906.63;;;16.37;100.00
13422;BME280;6782;55.904;13.396;2023-06-22T01:55:19;101914.22;;;16.20;100.00
13422;BME280;6782;55.904;13.396;2023-06-22T01:58:06;101924.13;;;16.15;100.00
13422;BME280;6782;55.904;13.396;2023-06-22T02:00:58;101926.03;;;16.10;100.00
13422;BME280;6782;55.904;13.396;2023-06-22T02:03:56;101922.56;;;16.06;100.00
13422;BME280;6782;55.904;13.396;2023-06-22T02:06:51;101916.84;;;15.89;100.00
13422;BME280;6782;55.904;13.396;2023-06-22T02:09:43;101932.50;;;16.00;100.00
13422;BME280;6782;55.904;13.396;2023-06-22T02:12:32;101929.41;;;15.83;100.00
13422;BME280;6782;55.904;13.396;2023-06-22T02:15:20;101922.44;;;15.79;100.00
13422;BME280;6782;55.904;13.396;2023-06-22T02:18:08;101928.66;;;15.78;100.00
13422;BME280;6782;55.904;13.396;2023-06-22T02:20:57;101936.63;;;15.78;100.00
13422;BME280;6782;55.904;13.396;2023-06-22T02:23:45;101938.47;;;15.76;100.00
13422;BME280;6782;55.904;13.396;2023-06-22T02:26:32;101926.41;;;15.62;100.00
13422;BME280;6782;55.904;13.396;2023-06-22T02:29:20;101924.75;;;15.58;100.00
13422;BME280;6782;55.904;13.396;2023-06-22T02:32:07;101928.31;;;15.57;100.00
13422;BME280;6782;55.904;13.396;2023-06-22T02:34:54;101928.53;;;15.48;100.00
13422;BME280;6782;55.904;13.396;2023-06-22T02:37:43;101931.84;;;15.56;100.00
13422;BME280;6782;55.904;13.396;2023-06-22T02:40:30;101933.69;;;15.54;100.00
13422;BME280;6782;55.904;13.396;2023-06-22T02:43:17;101931.97;;;15.53;100.00
13422;BME280;6782;55.904;13.396;2023-06-22T02:46:04;101940.91;;;15.49;100.00
13422;BME280;6782;55.904;13.396;2023-06-22T02:48:52;101945.16;;;15.56;100.00
13422;BME280;6782;55.904;13.396;2023-06-22T02:51:42;101950.19;;;15.69;100.00
13422;BME280;6782;55.904;13.396;2023-06-22T02:54:31;101959.69;;;15.79;100.00
13422;BME280;6782;55.904;13.396;2023-06-22T02:57:18;101959.75;;;15.76;100.00
13422;BME280;6782;55.904;13.396;2023-06-22T03:00:07;101969.31;;;15.84;100.00
13422;BME280;6782;55.904;13.396;2023-06-22T03:03:02;101955.25;;;15.79;100.00
13422;BME280;6782;55.904;13.396;2023-06-22T03:05:49;101958.66;;;15.84;100.00
13422;BME280;6782;55.904;13.396;2023-06-22T03:08:38;101944.59;;;15.79;100.00
13422;BME280;6782;55.904;13.396;2023-06-22T03:11:28;101953.34;;;15.83;100.00
13422;BME280;6782;55.904;13.396;2023-06-22T03:14:16;101961.13;;;15.92;100.00
13422;BME280;6782;55.904;13.396;2023-06-22T03:17:04;101967.88;;;16.05;100.00
13422;BME280;6782;55.904;13.396;2023-06-22T03:19:51;101960.03;;;15.99;100.00
13422;BME280;6782;55.904;13.396;2023-06-22T03:22:39;101986.03;;;16.55;100.00
13422;BME280;6782;55.904;13.396;2023-06-22T03:25:26;102004.06;;;17.06;100.00
13422;BME280;6782;55.904;13.396;2023-06-22T03:28:15;102026.63;;;18.06;100.00
13422;BME280;6782;55.904;13.396;2023-06-22T03:31:03;102043.91;;;19.43;100.00
13422;BME280;6782;55.904;13.396;2023-06-22T03:33:52;102002.22;;;20.01;100.00
13422;BME280;6782;55.904;13.396;2023-06-22T03:36:39;101941.81;;;21.12;100.00
13422;BME280;6782;55.904;13.396;2023-06-22T03:39:26;101821.22;;;21.09;100.00
13422;BME280;6782;55.904;13.396;2023-06-22T03:42:13;101676.00;;;20.64;100.00
13422;BME280;6782;55.904;13.396;2023-06-22T03:45:02;101562.63;;;20.44;100.00
13422;BME280;6782;55.904;13.396;2023-06-22T03:47:50;101496.03;;;20.87;100.00
13422;BME280;6782;55.904;13.396;2023-06-22T03:50:37;101425.69;;;21.30;100.00
13422;BME280;6782;55.904;13.396;2023-06-22T03:53:24;101367.28;;;22.09;100.00
13422;BME280;6782;55.904;13.396;2023-06-22T03:56:11;101309.34;;;23.29;100.00
13422;BME280;6782;55.904;13.396;2023-06-22T03:58:58;101212.41;;;23.93;100.00
13422;BME280;6782;55.904;13.396;2023-06-22T04:01:47;101116.88;;;24.81;100.00
13422;BME280;6782;55.904;13.396;2023-06-22T04:04:35;100929.81;;;24.12;100.00
13422;BME280;6782;55.904;13.396;2023-06-22T04:07:24;100786.31;;;22.68;100.00
13422;BME280;6782;55.904;13.396;2023-06-22T04:10:12;100818.00;;;21.23;100.00
13422;BME280;6782;55.904;13.396;2023-06-22T04:12:59;100914.75;;;19.76;100.00
13422;BME280;6782;55.904;13.396;2023-06-22T04:15:46;101013.09;;;19.24;100.00
13422;BME280;6782;55.904;13.396;2023-06-22T04:18:35;101111.72;;;18.63;100.00
13422;BME280;6782;55.904;13.396;2023-06-22T04:21:22;101172.03;;;18.67;100.00
13422;BME280;6782;55.904;13.396;2023-06-22T04:24:09;101206.47;;;18.56;100.00
13422;BME280;6782;55.904;13.396;2023-06-22T04:26:57;101245.09;;;18.49;100.00
13422;BME280;6782;55.904;13.396;2023-06-22T04:29:48;101276.09;;;18.33;100.00
13422;BME280;6782;55.904;13.396;2023-06-22T04:32:36;101312.25;;;18.21;100.00
13422;BME280;6782;55.904;13.396;2023-06-22T04:35:25;101355.72;;;18.25;100.00
13422;BME280;6782;55.904;13.396;2023-06-22T04:38:13;101372.41;;;18.09;100.00
13422;BME280;6782;55.904;13.396;2023-06-22T04:41:00;101404.72;;;18.03;100.00
13422;BME280;6782;55.904;13.396;2023-06-22T04:43:48;101426.41;;;18.16;100.00
13422;BME280;6782;55.904;13.396;2023-06-22T04:46:45;101460.06;;;18.20;100.00
13422;BME280;6782;55.904;13.396;2023-06-22T04:49:39;101479.75;;;18.38;100.00
13422;BME280;6782;55.904;13.396;2023-06-22T04:52:30;101494.34;;;18.51;100.00
13422;BME280;6782;55.904;13.396;2023-06-22T04:55:18;101510.06;;;18.57;100.00
13422;BME280;6782;55.904;13.396;2023-06-22T04:58:05;101490.47;;;18.16;100.00
13422;BME280;6782;55.904;13.396;2023-06-22T05:00:52;101493.25;;;17.93;100.00
13422;BME280;6782;55.904;13.396;2023-06-22T05:03:42;101534.16;;;18.35;100.00
13422;BME280;6782;55.904;13.396;2023-06-22T05:06:29;101520.03;;;18.11;100.00
13422;BME280;6782;55.904;13.396;2023-06-22T05:09:18;101516.03;;;18.22;100.00
13422;BME280;6782;55.904;13.396;2023-06-22T05:12:07;101540.94;;;18.64;100.00
13422;BME280;6782;55.904;13.396;2023-06-22T05:14:54;101525.69;;;18.46;100.00
13422;BME280;6782;55.904;13.396;2023-06-22T05:17:41;101514.34;;;18.41;100.00
13422;BME280;6782;55.904;13.396;2023-06-22T05:20:30;101516.84;;;18.44;100.00
13422;BME280;6782;55.904;13.396;2023-06-22T05:23:19;101530.72;;;18.73;100.00
13422;BME280;6782;55.904;13.396;2023-06-22T05:26:07;101529.84;;;18.73;100.00
13422;BME280;6782;55.904;13.396;2023-06-22T05:28:55;101524.91;;;18.64;100.00
13422;BME280;6782;55.904;13.396;2023-06-22T05:31:43;101496.56;;;18.40;100.00
13422;BME280;6782;55.904;13.396;2023-06-22T05:34:30;101507.31;;;18.38;100.00
13422;BME280;6782;55.904;13.396;2023-06-22T05:37:17;101503.66;;;18.41;100.00
13422;BME280;6782;55.904;13.396;2023-06-22T05:40:06;101507.69;;;18.51;100.00
13422;BME280;6782;55.904;13.396;2023-06-22T05:42:57;101507.31;;;18.79;100.00
13422;BME280;6782;55.904;13.396;2023-06-22T05:45:46;101489.28;;;18.84;100.00
13422;BME280;6782;55.904;13.396;2023-06-22T05:48:33;101484.22;;;18.96;100.00
13422;BME280;6782;55.904;13.396;2023-06-22T05:51:20;101460.38;;;18.92;100.00
13422;BME280;6782;55.904;13.396;2023-06-22T05:54:07;101418.56;;;18.52;100.00
13422;BME280;6782;55.904;13.396;2023-06-22T05:56:54;101451.28;;;19.14;100.00
13422;BME280;6782;55.904;13.396;2023-06-22T05:59:43;101423.94;;;19.26;100.00
13422;BME280;6782;55.904;13.396;2023-06-22T06:02:31;101422.81;;;19.68;100.00
13422;BME280;6782;55.904;13.396;2023-06-22T06:05:19;101370.59;;;19.42;100.00
13422;BME280;6782;55.904;13.396;2023-06-22T06:08:06;101359.66;;;19.47;100.00
13422;BME280;6782;55.904;13.396;2023-06-22T06:10:53;101359.34;;;19.70;100.00
13422;BME280;6782;55.904;13.396;2023-06-22T06:13:41;101326.63;;;19.48;100.00
13422;BME280;6782;55.904;13.396;2023-06-22T06:16:30;101315.06;;;19.64;100.00
13422;BME280;6782;55.904;13.396;2023-06-22T06:19:17;101306.69;;;19.70;100.00
13422;BME280;6782;55.904;13.396;2023-06-22T06:22:04;101282.16;;;19.45;100.00
13422;BME280;6782;55.904;13.396;2023-06-22T06:24:51;101298.97;;;19.81;100.00
13422;BME280;6782;55.904;13.396;2023-06-22T06:27:38;101268.13;;;19.57;100.00
13422;BME280;6782;55.904;13.396;2023-06-22T06:30:26;101243.66;;;19.30;100.00
13422;BME280;6782;55.904;13.396;2023-06-22T06:33:14;101249.78;;;19.15;100.00
13422;BME280;6782;55.904;13.396;2023-06-22T06:36:01;101268.75;;;19.28;100.00
13422;BME280;6782;55.904;13.396;2023-06-22T06:38:49;101270.16;;;19.18;100.00
13422;BME280;6782;55.904;13.396;2023-06-22T06:41:36;101288.50;;;19.25;100.00
13422;BME280;6782;55.904;13.396;2023-06-22T06:44:23;101247.91;;;19.17;100.00
13422;BME280;6782;55.904;13.396;2023-06-22T06:47:10;101288.53;;;19.77;100.00
13422;BME280;6782;55.904;13.396;2023-06-22T06:49:59;101273.00;;;19.83;100.00
13422;BME280;6782;55.904;13.396;2023-06-22T06:52:46;101274.31;;;19.92;100.00
13422;BME280;6782;55.904;13.396;2023-06-22T06:55:35;101247.72;;;19.89;100.00
13422;BME280;6782;55.904;13.396;2023-06-22T06:58:23;101221.47;;;19.63;100.00
13422;BME280;6782;55.904;13.396;2023-06-22T07:01:10;101228.34;;;19.51;100.00
13422;BME280;6782;55.904;13.396;2023-06-22T07:03:57;101224.28;;;19.60;100.00
13422;BME280;6782;55.904;13.396;2023-06-22T07:06:46;101257.25;;;20.10;100.00
13422;BME280;6782;55.904;13.396;2023-06-22T07:09:33;101241.44;;;20.38;100.00
13422;BME280;6782;55.904;13.396;2023-06-22T07:12:21;101231.38;;;20.57;100.00
13422;BME280;6782;55.904;13.396;2023-06-22T07:15:09;101216.16;;;20.74;100.00
13422;BME280;6782;55.904;13.396;2023-06-22T07:17:58;101161.22;;;20.51;100.00
13422;BME280;6782;55.904;13.396;2023-06-22T07:20:45;101180.84;;;20.81;100.00
13422;BME280;6782;55.904;13.396;2023-06-22T07:23:34;101152.75;;;20.73;100.00
13422;BME280;6782;55.904;13.396;2023-06-22T07:26:22;101116.72;;;20.63;100.00
13422;BME280;6782;55.904;13.396;2023-06-22T07:29:10;101102.91;;;20.54;100.00
13422;BME280;6782;55.904;13.396;2023-06-22T07:31:57;101104.47;;;20.58;100.00
13422;BME280;6782;55.904;13.396;2023-06-22T07:34:46;101133.19;;;21.16;100.00
13422;BME280;6782;55.904;13.396;2023-06-22T07:37:33;101028.81;;;20.83;100.00
13422;BME280;6782;55.904;13.396;2023-06-22T07:40:22;101048.97;;;20.60;100.00
13422;BME280;6782;55.904;13.396;2023-06-22T07:43:09;101117.50;;;20.94;100.00
13422;BME280;6782;55.904;13.396;2023-06-22T07:45:57;101120.16;;;21.52;100.00
13422;BME280;6782;55.904;13.396;2023-06-22T07:48:44;101082.22;;;21.58;100.00
13422;BME280;6782;55.904;13.396;2023-06-22T07:51:31;101050.69;;;21.62;100.00
13422;BME280;6782;55.904;13.396;2023-06-22T07:54:18;100998.38;;;20.84;100.00
13422;BME280;6782;55.904;13.396;2023-06-22T07:57:07;101073.25;;;21.31;100.00
13422;BME280;6782;55.904;13.396;2023-06-22T07:59:54;101030.50;;;21.28;100.00
13422;BME280;6782;55.904;13.396;2023-06-22T08:02:42;101064.50;;;21.28;100.00
13422;BME280;6782;55.904;13.396;2023-06-22T08:05:29;101028.75;;;21.41;100.00
13422;BME280;6782;55.904;13.396;2023-06-22T08:08:16;101003.94;;;21.38;100.00
13422;BME280;6782;55.904;13.396;2023-06-22T08:11:03;100971.47;;;21.14;100.00
13422;BME280;6782;55.904;13.396;2023-06-22T08:13:53;100954.00;;;21.49;100.00
13422;BME280;6782;55.904;13.396;2023-06-22T08:16:41;100915.06;;;21.42;100.00
13422;BME280;6782;55.904;13.396;2023-06-22T08:19:28;100866.50;;;20.92;100.00
13422;BME280;6782;55.904;13.396;2023-06-22T08:22:15;100918.00;;;20.83;100.00
13422;BME280;6782;55.904;13.396;2023-06-22T08:25:04;100903.47;;;20.87;100.00
13422;BME280;6782;55.904;13.396;2023-06-22T08:27:51;100983.34;;;21.24;100.00
13422;BME280;6782;55.904;13.396;2023-06-22T08:30:40;101038.09;;;21.76;100.00
13422;BME280;6782;55.904;13.396;2023-06-22T08:33:27;100974.50;;;21.77;100.00
13422;BME280;6782;55.904;13.396;2023-06-22T08:36:16;100912.97;;;21.74;100.00
13422;BME280;6782;55.904;13.396;2023-06-22T08:39:03;100842.03;;;21.51;100.00
13422;BME280;6782;55.904;13.396;2023-06-22T08:41:50;100821.56;;;21.75;100.00
13422;BME280;6782;55.904;13.396;2023-06-22T08:44:37;100762.88;;;21.44;100.00
13422;BME280;6782;55.904;13.396;2023-06-22T08:47:27;100863.69;;;21.75;100.00
13422;BME280;6782;55.904;13.396;2023-06-22T08:50:14;100824.56;;;21.83;100.00
13422;BME280;6782;55.904;13.396;2023-06-22T08:53:01;100754.75;;;21.83;100.00
13422;BME280;6782;55.904;13.396;2023-06-22T08:55:49;100802.94;;;22.12;100.00
13422;BME280;6782;55.904;13.396;2023-06-22T08:58:36;100676.38;;;21.91;100.00
13422;BME280;6782;55.904;13.396;2023-06-22T09:01:24;100713.84;;;22.18;100.00
13422;BME280;6782;55.904;13.396;2023-06-22T09:04:13;100708.72;;;22.51;100.00
13422;BME280;6782;55.904;13.396;2023-06-22T09:07:00;100687.72;;;22.92;100.00
13422;BME280;6782;55.904;13.396;2023-06-22T09:09:48;100474.38;;;22.46;100.00
13422;BME280;6782;55.904;13.396;2023-06-22T09:12:35;100659.38;;;22.39;100.00
13422;BME280;6782;55.904;13.396;2023-06-22T09:15:23;100634.38;;;22.03;100.00
13422;BME280;6782;55.904;13.396;2023-06-22T09:18:11;100668.09;;;21.69;100.00
13422;BME280;6782;55.904;13.396;2023-06-22T09:21:00;100766.91;;;21.25;100.00
13422;BME280;6782;55.904;13.396;2023-06-22T09:23:48;100946.75;;;21.91;100.00
13422;BME280;6782;55.904;13.396;2023-06-22T09:26:36;100973.31;;;22.47;100.00
13422;BME280;6782;55.904;13.396;2023-06-22T09:29:24;100828.31;;;21.68;100.00
13422;BME280;6782;55.904;13.396;2023-06-22T09:32:11;100906.53;;;22.16;100.00
13422;BME280;6782;55.904;13.396;2023-06-22T09:34:58;100598.16;;;21.83;100.00
13422;BME280;6782;55.904;13.396;2023-06-22T09:37:47;100512.00;;;21.99;100.00
13422;BME280;6782;55.904;13.396;2023-06-22T09:40:34;100718.16;;;22.69;100.00
13422;BME280;6782;55.904;13.396;2023-06-22T09:43:25;100475.94;;;22.72;100.00
13422;BME280;6782;55.904;13.396;2023-06-22T09:46:13;100198.06;;;22.62;100.00
13422;BME280;6782;55.904;13.396;2023-06-22T09:49:00;100291.63;;;22.46;100.00
13422;BME280;6782;55.904;13.396;2023-06-22T09:51:47;100423.28;;;23.03;100.00
13422;BME280;6782;55.904;13.396;2023-06-22T09:54:37;100268.91;;;23.26;100.00
13422;BME280;6782;55.904;13.396;2023-06-22T09:57:24;100166.94;;;23.44;100.00
13422;BME280;6782;55.904;13.396;2023-06-22T10:00:12;100076.72;;;23.29;100.00
13422;BME280;6782;55.904;13.396;2023-06-22T10:03:00;99990.31;;;22.60;100.00
13422;BME280;6782;55.904;13.396;2023-06-22T10:05:47;100259.59;;;22.65;100.00
13422;BME280;6782;55.904;13.396;2023-06-22T10:08:35;100298.91;;;23.11;100.00
13422;BME280;6782;55.904;13.396;2023-06-22T10:11:23;100268.66;;;22.64;100.00
13422;BME280;6782;55.904;13.396;2023-06-22T10:14:15;100287.06;;;22.58;100.00
13422;BME280;6782;55.904;13.396;2023-06-22T10:17:03;100214.19;;;22.29;100.00
13422;BME280;6782;55.904;13.396;2023-06-22T10:19:52;100470.06;;;22.67;100.00
13422;BME280;6782;55.904;13.396;2023-06-22T10:22:40;100351.47;;;23.03;100.00
13422;BME280;6782;55.904;13.396;2023-06-22T10:25:28;100088.41;;;22.97;100.00
13422;BME280;6782;55.904;13.396;2023-06-22T10:28:16;99972.50;;;22.59;100.00
13422;BME280;6782;55.904;13.396;2023-06-22T10:31:04;100078.13;;;22.39;100.00
13422;BME280;6782;55.904;13.396;2023-06-22T10:33:51;100303.88;;;22.72;100.00
13422;BME280;6782;55.904;13.396;2023-06-22T10:36:39;100427.53;;;23.28;100.00
13422;BME280;6782;55.904;13.396;2023-06-22T10:39:26;100335.84;;;22.97;100.00
13422;BME280;6782;55.904;13.396;2023-06-22T10:42:14;100451.38;;;22.99;100.00
13422;BME280;6782;55.904;13.396;2023-06-22T10:45:03;100234.81;;;22.28;100.00
13422;BME280;6782;55.904;13.396;2023-06-22T10:47:50;100578.84;;;23.20;100.00
13422;BME280;6782;55.904;13.396;2023-06-22T10:50:37;100415.16;;;23.47;100.00
13422;BME280;6782;55.904;13.396;2023-06-22T10:53:24;100111.66;;;23.40;100.00
13422;BME280;6782;55.904;13.396;2023-06-22T10:56:12;99924.59;;;23.25;100.00
13422;BME280;6782;55.904;13.396;2023-06-22T10:58:59;99706.56;;;23.45;100.00
13422;BME280;6782;55.904;13.396;2023-06-22T11:01:48;99299.84;;;23.31;100.00
13422;BME280;6782;55.904;13.396;2023-06-22T11:04:36;99258.47;;;23.32;100.00
13422;BME280;6782;55.904;13.396;2023-06-22T11:07:23;99753.28;;;23.73;100.00
13422;BME280;6782;55.904;13.396;2023-06-22T11:10:10;99875.28;;;24.50;100.00
13422;BME280;6782;55.904;13.396;2023-06-22T11:12:57;99347.53;;;24.01;100.00
13422;BME280;6782;55.904;13.396;2023-06-22T11:15:44;99129.97;;;23.87;100.00
13422;BME280;6782;55.904;13.396;2023-06-22T11:18:33;99258.53;;;23.67;100.00
13422;BME280;6782;55.904;13.396;2023-06-22T11:21:20;99919.41;;;24.78;100.00
13422;BME280;6782;55.904;13.396;2023-06-22T11:24:07;99437.34;;;24.80;100.00
13422;BME280;6782;55.904;13.396;2023-06-22T11:26:55;99319.69;;;23.75;100.00
13422;BME280;6782;55.904;13.396;2023-06-22T11:29:42;99667.72;;;23.57;100.00
13422;BME280;6782;55.904;13.396;2023-06-22T11:32:29;99766.59;;;24.03;100.00
13422;BME280;6782;55.904;13.396;2023-06-22T11:35:18;99697.00;;;24.36;100.00
13422;BME280;6782;55.904;13.396;2023-06-22T11:38:06;99773.66;;;24.97;100.00
13422;BME280;6782;55.904;13.396;2023-06-22T11:40:53;99144.84;;;23.99;100.00
13422;BME280;6782;55.904;13.396;2023-06-22T11:43:40;98994.50;;;23.86;100.00
13422;BME280;6782;55.904;13.396;2023-06-22T11:46:28;99253.25;;;23.75;100.00
13422;BME280;6782;55.904;13.396;2023-06-22T11:49:15;99181.03;;;24.56;100.00
13422;BME280;6782;55.904;13.396;2023-06-22T11:52:05;98779.84;;;24.92;100.00
13422;BME280;6782;55.904;13.396;2023-06-22T11:54:52;98229.34;;;25.09;97.19
13422;BME280;6782;55.904;13.396;2023-06-22T11:57:53;98109.84;;;24.73;95.78
13422;BME280;6782;55.904;13.396;2023-06-22T12:00:41;98598.44;;;24.98;98.66
13422;BME280;6782;55.904;13.396;2023-06-22T12:03:28;98887.38;;;25.58;98.97
13422;BME280;6782;55.904;13.396;2023-06-22T12:06:16;98415.63;;;24.93;96.69
13422;BME280;6782;55.904;13.396;2023-06-22T12:09:05;98980.91;;;25.10;100.00
13422;BME280;6782;55.904;13.396;2023-06-22T12:11:52;98968.09;;;24.96;100.00
13422;BME280;6782;55.904;13.396;2023-06-22T12:14:40;99369.06;;;25.05;100.00
13422;BME280;6782;55.904;13.396;2023-06-22T12:17:27;98850.84;;;24.19;100.00
13422;BME280;6782;55.904;13.396;2023-06-22T12:20:14;99031.94;;;24.63;100.00
13422;BME280;6782;55.904;13.396;2023-06-22T12:23:02;98689.44;;;24.65;98.74
13422;BME280;6782;55.904;13.396;2023-06-22T12:25:51;98663.56;;;25.17;96.67
13422;BME280;6782;55.904;13.396;2023-06-22T12:28:38;98281.44;;;24.95;93.62
13422;BME280;6782;55.904;13.396;2023-06-22T12:31:25;98326.44;;;25.09;92.81
13422;BME280;6782;55.904;13.396;2023-06-22T12:34:13;98705.16;;;25.23;95.64
13422;BME280;6782;55.904;13.396;2023-06-22T12:37:00;98024.22;;;25.17;90.04
13422;BME280;6782;55.904;13.396;2023-06-22T12:39:47;98228.38;;;25.31;89.65
13422;BME280;6782;55.904;13.396;2023-06-22T12:42:36;97966.47;;;25.05;88.34
13422;BME280;6782;55.904;13.396;2023-06-22T12:45:24;98324.00;;;25.43;89.69
13422;BME280;6782;55.904;13.396;2023-06-22T12:48:14;97709.16;;;25.34;85.82
13422;BME280;6782;55.904;13.396;2023-06-22T12:51:02;97945.91;;;25.04;88.05
13422;BME280;6782;55.904;13.396;2023-06-22T12:53:50;97765.63;;;25.42;85.16
13422;BME280;6782;55.904;13.396;2023-06-22T12:56:37;100569.84;;;25.15;80.22
13422;BME280;6782;55.904;13.396;2023-06-22T12:59:26;100666.31;;;25.33;80.01
13422;BME280;6782;55.904;13.396;2023-06-22T13:02:14;100631.06;;;25.35;77.66
13422;BME280;6782;55.904;13.396;2023-06-22T13:05:02;100596.25;;;25.32;74.83
13422;BME280;6782;55.904;13.396;2023-06-22T13:07:50;100655.78;;;25.30;75.20
13422;BME280;6782;55.904;13.396;2023-06-22T13:10:37;100686.16;;;26.15;74.96
13422;BME280;6782;55.904;13.396;2023-06-22T13:13:25;100691.03;;;26.21;74.22
13422;BME280;6782;55.904;13.396;2023-06-22T13:16:14;100734.03;;;26.24;75.43
13422;BME280;6782;55.904;13.396;2023-06-22T13:19:02;100648.97;;;26.47;72.63
13422;BME280;6782;55.904;13.396;2023-06-22T13:21:49;100638.50;;;25.63;71.42
13422;BME280;6782;55.904;13.396;2023-06-22T13:24:36;100645.59;;;25.85;71.91
13422;BME280;6782;55.904;13.396;2023-06-22T13:27:24;100749.47;;;25.92;74.04
13422;BME280;6782;55.904;13.396;2023-06-22T13:30:12;100726.22;;;26.10;74.12
13422;BME280;6782;55.904;13.396;2023-06-22T13:33:01;100797.72;;;26.17;76.62
13422;BME280;6782;55.904;13.396;2023-06-22T13:35:48;100700.63;;;25.42;74.35
13422;BME280;6782;55.904;13.396;2023-06-22T13:38:35;100687.41;;;25.39;73.65
13422;BME280;6782;55.904;13.396;2023-06-22T13:41:24;100678.00;;;25.55;72.91
13422;BME280;6782;55.904;13.396;2023-06-22T13:44:11;100728.56;;;25.32;73.97
13422;BME280;6782;55.904;13.396;2023-06-22T13:46:59;100695.16;;;25.33;74.53
13422;BME280;6782;55.904;13.396;2023-06-22T13:49:47;100722.16;;;25.95;73.70
13422;BME280;6782;55.904;13.396;2023-06-22T13:52:35;100685.94;;;25.35;73.67
13422;BME280;6782;55.904;13.396;2023-06-22T13:55:22;100739.88;;;24.72;76.00
13422;BME280;6782;55.904;13.396;2023-06-22T13:58:09;100724.88;;;25.01;76.01
13422;BME280;6782;55.904;13.396;2023-06-22T14:00:56;100830.38;;;24.98;78.20
13422;BME280;6782;55.904;13.396;2023-06-22T14:03:43;100743.81;;;24.68;76.33
13422;BME280;6782;55.904;13.396;2023-06-22T14:06:34;100759.41;;;25.18;76.36
13422;BME280;6782;55.904;13.396;2023-06-22T14:09:21;100800.59;;;26.04;76.37
13422;BME280;6782;55.904;13.396;2023-06-22T14:12:10;100725.84;;;25.94;74.40
13422;BME280;6782;55.904;13.396;2023-06-22T14:14:58;100775.78;;;25.06;76.51
13422;BME280;6782;55.904;13.396;2023-06-22T14:17:45;100835.44;;;25.45;78.43
13422;BME280;6782;55.904;13.396;2023-06-22T14:20:32;100893.63;;;25.49;80.52
13422;BME280;6782;55.904;13.396;2023-06-22T14:23:21;100848.03;;;26.08;78.22
13422;BME280;6782;55.904;13.396;2023-06-22T14:26:08;100762.41;;;25.68;76.63
13422;BME280;6782;55.904;13.396;2023-06-22T14:28:55;100655.97;;;25.18;73.02
13422;BME280;6782;55.904;13.396;2023-06-22T14:31:44;100703.63;;;25.08;75.27